METAR Data
IDs: Format: Raw Decoded Include TAF

Data at: 0317 UTC 19 Oct 2021

KASG 190148Z 12005KT 10SM CLR 15/10 A3009
KASG 190048Z 13003KT 10SM CLR 16/09 A3008
KASG 182348Z 14003KT 10SM CLR 17/09 A3008
KASG 182248Z 15007KT 10SM CLR 20/08 A3007
KASG 182148Z 16009KT 10SM CLR 21/08 A3008
KASG 182048Z 14006KT 10SM CLR 22/07 A3010
KASG 181948Z 15008KT 10SM CLR 22/08 A3011
KASG 181848Z 21010KT 10SM CLR 22/08 A3015
KASG 181748Z 17006G12KT 10SM CLR 21/10 A3018
KASG 181648Z 16008KT 10SM CLR 20/08 A3020
KASG 181548Z 17004KT 10SM CLR 17/11 A3022
KASG 181448Z 14003KT 10SM CLR 15/10 A3023
KASG 181348Z 13003KT 10SM CLR 07/09 A3022
KASG 181248Z 00000KT 10SM CLR 07/07 A3020
KASG 181148Z 00000KT 10SM CLR 07/07 A3019
KASG 181048Z 11003KT 10SM CLR 08/08 A3019
KASG 180148Z 00000KT 10SM CLR 13/09 A3022
KASG 180048Z 00000KT 10SM CLR 14/09 A3021
KASG 172348Z 00000KT 10SM CLR 19/06 A3021
KASG 172248Z 27006KT 10SM CLR 21/08 A3022
KASG 172148Z 27006KT 10SM CLR 22/05 A3022
KASG 172048Z 28005G14KT 10SM CLR 22/06 A3023
KASG 171948Z 26008G14KT 10SM CLR 22/05 A3024
KASG 171848Z 26007KT 10SM CLR 21/05 A3027
KASG 171748Z 25006KT 10SM CLR 20/06 A3029
KASG 171648Z 23006KT 10SM CLR 19/06 A3033
KASG 171548Z 23006KT 10SM CLR 17/07 A3034